»·PEaware :: N1127N KSNA-KBUR

N1127N :: KSNA-KBUR

FLIGHT INFORMATION

Flight Status: Arrived
Operator: Privately registered:
United States
More flights under this callsign
Pilot: Alexander M. (19327)
Aircraft: CESSNA 550 CITATION 2/S2/BRAVO
(C550)
More flights by this aircraft type
Origin: KSNA John Wayne-Orange Co
United States
Destination: KBUR Bob Hope-Burbank
United States
More flights between these airports :: More routes between these airports
Route: +SLI V23 LAX LAX316R SILEX
File this flight plan on PilotEdge
Remarks: Pilotedge I-03 Rating...on stream! twitch.tv / allaboutflight
Altitude:
(Current/Filed)
6,000ft
Speed:
(Current/Filed)
210kts
Departed: 27-Oct-18 04:02 PM
Arrived: 27-Oct-18 04:37 PM
Distance/Time
Traveled:
40nm/0:34
Distance/Time
To Go:
Arrived

Flight Plot

Page will automatically refresh every two minutes.


Map Options




Map Legend


Flown Route
Filed Route
Departure Airport
Arrival Airport
Navaid (VOR, NDB)
Fix

Horizontal Profiles

Position Reports

Time Latitude Longitude Heading Altitude Ground
Speed
27-Oct-18 15:50 33.676356 -117.871009 206 61ft 0kts
27-Oct-18 15:51 33.676356 -117.871009 206 61ft 0kts
27-Oct-18 15:52 33.676356 -117.871009 206 61ft 0kts
27-Oct-18 15:53 33.676356 -117.871009 206 61ft 0kts
27-Oct-18 15:54 33.676356 -117.871009 206 61ft 0kts
27-Oct-18 15:55 33.676356 -117.871009 206 61ft 0kts
27-Oct-18 15:56 33.676985 -117.869505 30 61ft 15kts
27-Oct-18 15:57 33.679623 -117.867999 16 61ft 6kts
27-Oct-18 15:58 33.679762 -117.867932 24 61ft 0kts
27-Oct-18 15:59 33.679763 -117.867932 24 61ft 0kts
27-Oct-18 16:00 33.679763 -117.867932 24 61ft 0kts
27-Oct-18 16:01 33.679763 -117.867932 24 61ft 0kts
27-Oct-18 16:02 33.681061 -117.867122 28 61ft 16kts
27-Oct-18 16:03 33.680978 -117.865476 209 61ft 35kts
27-Oct-18 16:04 33.654493 -117.880028 185 928ft 135kts
27-Oct-18 16:05 33.617500 -117.883178 183 1789ft 144kts
27-Oct-18 16:06 33.576958 -117.886228 184 2645ft 151kts
27-Oct-18 16:07 33.546748 -117.912683 276 3333ft 161kts
27-Oct-18 16:08 33.576101 -117.956501 310 3792ft 185kts
27-Oct-18 16:09 33.610680 -118.004762 310 4539ft 206kts
27-Oct-18 16:10 33.646997 -118.053738 310 5351ft 205kts
27-Oct-18 16:11 33.683783 -118.102124 310 5985ft 208kts
27-Oct-18 16:12 33.719585 -118.149279 310 5990ft 206kts
27-Oct-18 16:13 33.751754 -118.191647 309 5989ft 184kts
27-Oct-18 16:14 33.777921 -118.226219 309 5982ft 172kts
27-Oct-18 16:15 33.798997 -118.254130 309 5973ft 165kts
27-Oct-18 16:16 33.820833 -118.283060 309 5976ft 160kts
27-Oct-18 16:17 33.842483 -118.311760 309 5979ft 156kts
27-Oct-18 16:18 33.865149 -118.341743 309 5983ft 153kts
27-Oct-18 16:19 33.886982 -118.370706 309 5987ft 156kts
27-Oct-18 16:20 33.910926 -118.402520 310 5989ft 166kts
27-Oct-18 16:21 33.934962 -118.432690 323 5990ft 174kts
27-Oct-18 16:22 33.966355 -118.454183 328 5989ft 179kts
27-Oct-18 16:23 33.995912 -118.473974 328 5989ft 181kts
27-Oct-18 16:24 34.026684 -118.494578 328 5989ft 182kts
27-Oct-18 16:25 34.056679 -118.514679 328 5937ft 184kts
27-Oct-18 16:26 34.086904 -118.534927 328 5524ft 169kts
27-Oct-18 16:27 34.108732 -118.549602 329 5191ft 162kts
27-Oct-18 16:28 34.132713 -118.565165 330 4759ft 161kts
27-Oct-18 16:29 34.159289 -118.582674 330 4276ft 165kts
27-Oct-18 16:30 34.189040 -118.591993 33 3996ft 160kts
27-Oct-18 16:31 34.203983 -118.561302 63 3862ft 136kts
27-Oct-18 16:32 34.209026 -118.525820 104 3725ft 134kts
27-Oct-18 16:33 34.201131 -118.494049 105 3591ft 126kts
27-Oct-18 16:34 34.198716 -118.466309 89 2687ft 104kts
27-Oct-18 16:35 34.198814 -118.439363 90 2020ft 103kts
27-Oct-18 16:36 34.198649 -118.412693 92 1475ft 104kts
27-Oct-18 16:37 34.198190 -118.386664 92 1101ft 103kts
27-Oct-18 16:38 34.197791 -118.361899 91 739ft 69kts
27-Oct-18 16:39 34.198525 -118.357970 1 739ft 4kts
27-Oct-18 16:40 34.200310 -118.358305 347 739ft 19kts
27-Oct-18 16:41 34.203503 -118.359181 347 739ft 11kts
27-Oct-18 16:42 34.203918 -118.359914 265 739ft 4kts
27-Oct-18 16:43 34.203847 -118.361306 270 739ft 0kts
27-Oct-18 16:44 34.203847 -118.361306 270 739ft 0kts
27-Oct-18 16:45 34.203847 -118.361306 270 739ft 0kts
27-Oct-18 16:46 34.203847 -118.361306 270 739ft 0kts
27-Oct-18 16:47 34.203847 -118.361306 270 739ft 0kts
27-Oct-18 16:48 34.203847 -118.361306 270 739ft 0kts
27-Oct-18 16:49 34.203847 -118.361306 270 739ft 0kts
27-Oct-18 16:50 34.203847 -118.361306 270 739ft 0kts
27-Oct-18 16:51 34.203847 -118.361306 270 739ft 0kts
27-Oct-18 16:52 34.203847 -118.361306 270 739ft 0kts

Navigation Log

Ident Type
1. KSNA Airport
2. SLI Navaid
3. POPPR Fix
4. HERMO Fix
5. LAX Navaid
6. SILEX Fix
7. KBUR Airport